Lisse, Netherlands
Current Conditions -  °F | °C
As of 2:25 AM on Saturday 22 Nov 2014 (Local Time) from EHAM Reporting Station
Clear Clear  
Wind Chill: 35°   Ceiling: Unl
Heat Index: 39°   Visibility: 6mi
Dew Point: 37°   Wind: 6mph
Humidity: 93%   Direction: 100°E
Pressure: 30.06"   Gusts: NA
Location:  52.26°N, 4.56°E
Report Text: EHAM 220125Z 10005KT CAVOK 04/03 Q1018 NOSIG
Loading
Personal Weather Stations






























Interactive Weather Map New forecast layout! Learn more

10-Day Weather Forecast

Advertisements
Track Severe Weather on mobile